sensor_id;sensor_type;location;lat;lon;timestamp;pressure;altitude;pressure_sealevel;temperature;humidity
32298;BME280;18782;48.984;8.548;2023-02-03T00:00:39;101345.97;;;7.45;81.45
32298;BME280;18782;48.984;8.548;2023-02-03T00:03:06;101357.03;;;7.44;81.35
32298;BME280;18782;48.984;8.548;2023-02-03T00:05:35;101352.97;;;7.48;81.29
32298;BME280;18782;48.984;8.548;2023-02-03T00:08:04;101351.91;;;7.44;81.53
32298;BME280;18782;48.984;8.548;2023-02-03T00:10:34;101354.47;;;7.44;81.60
32298;BME280;18782;48.984;8.548;2023-02-03T00:13:03;101338.28;;;7.45;81.88
32298;BME280;18782;48.984;8.548;2023-02-03T00:15:31;101343.59;;;7.48;82.04
32298;BME280;18782;48.984;8.548;2023-02-03T00:17:58;101341.66;;;7.44;82.29
32298;BME280;18782;48.984;8.548;2023-02-03T00:20:26;101361.06;;;7.41;82.29
32298;BME280;18782;48.984;8.548;2023-02-03T00:22:54;101326.00;;;7.40;82.23
32298;BME280;18782;48.984;8.548;2023-02-03T00:25:21;101326.81;;;7.39;82.41
32298;BME280;18782;48.984;8.548;2023-02-03T00:27:50;101322.84;;;7.44;82.57
32298;BME280;18782;48.984;8.548;2023-02-03T00:30:18;101316.75;;;7.42;82.31
32298;BME280;18782;48.984;8.548;2023-02-03T00:32:46;101324.31;;;7.40;82.45
32298;BME280;18782;48.984;8.548;2023-02-03T00:35:13;101324.50;;;7.43;82.54
32298;BME280;18782;48.984;8.548;2023-02-03T00:37:41;101339.81;;;7.42;82.50
32298;BME280;18782;48.984;8.548;2023-02-03T00:40:10;101330.56;;;7.30;82.62
32298;BME280;18782;48.984;8.548;2023-02-03T00:42:38;101332.66;;;7.36;82.58
32298;BME280;18782;48.984;8.548;2023-02-03T00:45:07;101328.00;;;7.30;83.14
32298;BME280;18782;48.984;8.548;2023-02-03T00:47:35;101339.34;;;7.34;83.04
32298;BME280;18782;48.984;8.548;2023-02-03T00:50:03;101319.88;;;7.23;83.70
32298;BME280;18782;48.984;8.548;2023-02-03T00:52:32;101355.75;;;7.23;83.88
32298;BME280;18782;48.984;8.548;2023-02-03T00:55:00;101347.63;;;7.30;83.63
32298;BME280;18782;48.984;8.548;2023-02-03T00:57:28;101343.91;;;7.25;83.91
32298;BME280;18782;48.984;8.548;2023-02-03T00:59:56;101323.06;;;7.19;84.68
32298;BME280;18782;48.984;8.548;2023-02-03T01:02:24;101329.06;;;7.19;84.73
32298;BME280;18782;48.984;8.548;2023-02-03T01:04:52;101324.94;;;7.21;84.54
32298;BME280;18782;48.984;8.548;2023-02-03T01:07:20;101332.50;;;7.20;84.51
32298;BME280;18782;48.984;8.548;2023-02-03T01:09:48;101318.66;;;7.16;84.54
32298;BME280;18782;48.984;8.548;2023-02-03T01:12:15;101326.66;;;7.07;85.16
32298;BME280;18782;48.984;8.548;2023-02-03T01:14:43;101316.41;;;7.07;85.41
32298;BME280;18782;48.984;8.548;2023-02-03T01:17:10;101312.44;;;7.13;84.96
32298;BME280;18782;48.984;8.548;2023-02-03T01:19:39;101329.22;;;7.07;85.63
32298;BME280;18782;48.984;8.548;2023-02-03T01:22:07;101299.44;;;7.10;85.13
32298;BME280;18782;48.984;8.548;2023-02-03T01:24:34;101286.66;;;7.10;85.43
32298;BME280;18782;48.984;8.548;2023-02-03T01:27:03;101274.84;;;7.12;85.41
32298;BME280;18782;48.984;8.548;2023-02-03T01:29:32;101298.47;;;7.07;85.59
32298;BME280;18782;48.984;8.548;2023-02-03T01:31:59;101312.44;;;7.13;85.36
32298;BME280;18782;48.984;8.548;2023-02-03T01:34:27;101319.25;;;7.12;84.95
32298;BME280;18782;48.984;8.548;2023-02-03T01:36:56;101324.44;;;7.14;85.13
32298;BME280;18782;48.984;8.548;2023-02-03T01:39:23;101320.31;;;7.16;84.96
32298;BME280;18782;48.984;8.548;2023-02-03T01:41:54;101346.28;;;7.22;84.90
32298;BME280;18782;48.984;8.548;2023-02-03T01:44:42;101338.78;;;7.25;85.01
32298;BME280;18782;48.984;8.548;2023-02-03T01:47:22;101324.22;;;7.24;85.22
32298;BME280;18782;48.984;8.548;2023-02-03T01:49:56;101317.56;;;7.13;86.46
32298;BME280;18782;48.984;8.548;2023-02-03T01:52:28;101323.41;;;7.10;86.57
32298;BME280;18782;48.984;8.548;2023-02-03T01:54:57;101312.44;;;7.13;87.07
32298;BME280;18782;48.984;8.548;2023-02-03T01:57:30;101313.41;;;7.00;87.41
32298;BME280;18782;48.984;8.548;2023-02-03T02:00:00;101297.41;;;7.04;86.64
32298;BME280;18782;48.984;8.548;2023-02-03T02:02:38;101284.53;;;7.02;87.67
32298;BME280;18782;48.984;8.548;2023-02-03T02:05:10;101269.75;;;6.98;87.02
32298;BME280;18782;48.984;8.548;2023-02-03T02:07:42;101285.13;;;6.98;87.39
32298;BME280;18782;48.984;8.548;2023-02-03T02:10:10;101253.25;;;6.93;87.96
32298;BME280;18782;48.984;8.548;2023-02-03T02:12:40;101247.09;;;6.90;88.36
32298;BME280;18782;48.984;8.548;2023-02-03T02:15:09;101239.13;;;6.85;88.98
32298;BME280;18782;48.984;8.548;2023-02-03T02:17:58;101244.94;;;6.83;89.64
32298;BME280;18782;48.984;8.548;2023-02-03T02:20:57;101252.53;;;6.81;89.54
32298;BME280;18782;48.984;8.548;2023-02-03T02:23:50;101247.75;;;6.87;89.42
32298;BME280;18782;48.984;8.548;2023-02-03T02:26:47;101245.63;;;6.80;89.49
32298;BME280;18782;48.984;8.548;2023-02-03T02:29:38;101253.97;;;6.91;88.77
32298;BME280;18782;48.984;8.548;2023-02-03T02:32:23;101245.72;;;6.82;89.54
32298;BME280;18782;48.984;8.548;2023-02-03T02:35:01;101230.09;;;6.77;90.05
32298;BME280;18782;48.984;8.548;2023-02-03T02:37:37;101235.56;;;6.83;89.66
32298;BME280;18782;48.984;8.548;2023-02-03T02:40:14;101254.47;;;6.85;90.00
32298;BME280;18782;48.984;8.548;2023-02-03T02:42:57;101254.47;;;6.85;89.80
32298;BME280;18782;48.984;8.548;2023-02-03T02:45:29;101239.41;;;6.90;89.52
32298;BME280;18782;48.984;8.548;2023-02-03T02:48:04;101240.69;;;6.83;89.83
32298;BME280;18782;48.984;8.548;2023-02-03T02:50:37;101246.97;;;6.88;89.66
32298;BME280;18782;48.984;8.548;2023-02-03T02:53:07;101231.00;;;6.92;88.97
32298;BME280;18782;48.984;8.548;2023-02-03T02:55:39;101240.56;;;6.95;88.64
32298;BME280;18782;48.984;8.548;2023-02-03T02:58:12;101224.31;;;6.94;88.87
32298;BME280;18782;48.984;8.548;2023-02-03T03:00:43;101230.41;;;6.96;89.07
32298;BME280;18782;48.984;8.548;2023-02-03T03:03:14;101216.34;;;7.04;88.57
32298;BME280;18782;48.984;8.548;2023-02-03T03:05:45;101223.28;;;7.05;88.24
32298;BME280;18782;48.984;8.548;2023-02-03T03:08:19;101236.84;;;7.04;87.59
32298;BME280;18782;48.984;8.548;2023-02-03T03:10:49;101209.34;;;7.15;87.59
32298;BME280;18782;48.984;8.548;2023-02-03T03:13:23;101194.47;;;7.10;87.60
32298;BME280;18782;48.984;8.548;2023-02-03T03:15:53;101187.94;;;7.15;88.00
32298;BME280;18782;48.984;8.548;2023-02-03T03:18:27;101182.41;;;7.22;86.96
32298;BME280;18782;48.984;8.548;2023-02-03T03:20:59;101187.25;;;7.17;87.22
32298;BME280;18782;48.984;8.548;2023-02-03T03:23:34;101200.13;;;7.19;86.88
32298;BME280;18782;48.984;8.548;2023-02-03T03:26:09;101225.94;;;7.22;86.77
32298;BME280;18782;48.984;8.548;2023-02-03T03:28:42;101231.94;;;7.22;87.06
32298;BME280;18782;48.984;8.548;2023-02-03T03:31:13;101230.69;;;7.16;88.32
32298;BME280;18782;48.984;8.548;2023-02-03T03:33:42;101245.50;;;7.06;87.97
32298;BME280;18782;48.984;8.548;2023-02-03T03:36:18;101254.13;;;6.94;89.32
32298;BME280;18782;48.984;8.548;2023-02-03T03:38:53;101251.13;;;6.86;90.54
32298;BME280;18782;48.984;8.548;2023-02-03T03:41:28;101245.53;;;6.78;90.84
32298;BME280;18782;48.984;8.548;2023-02-03T03:44:00;101248.28;;;6.82;90.56
32298;BME280;18782;48.984;8.548;2023-02-03T03:46:32;101253.59;;;6.85;90.07
32298;BME280;18782;48.984;8.548;2023-02-03T03:49:04;101271.41;;;6.83;89.85
32298;BME280;18782;48.984;8.548;2023-02-03T03:51:36;101270.00;;;6.88;89.17
32298;BME280;18782;48.984;8.548;2023-02-03T03:54:09;101284.97;;;6.95;89.19
32298;BME280;18782;48.984;8.548;2023-02-03T03:56:40;101289.28;;;6.96;88.88
32298;BME280;18782;48.984;8.548;2023-02-03T03:59:11;101309.75;;;6.96;88.56
32298;BME280;18782;48.984;8.548;2023-02-03T04:01:40;101302.31;;;6.86;88.42
32298;BME280;18782;48.984;8.548;2023-02-03T04:04:10;101290.47;;;6.88;88.38
32298;BME280;18782;48.984;8.548;2023-02-03T04:06:38;101291.28;;;6.87;87.83
32298;BME280;18782;48.984;8.548;2023-02-03T04:09:06;101316.72;;;6.84;87.88
32298;BME280;18782;48.984;8.548;2023-02-03T04:11:34;101296.47;;;6.89;88.37
32298;BME280;18782;48.984;8.548;2023-02-03T04:14:19;101295.44;;;6.85;87.79
32298;BME280;18782;48.984;8.548;2023-02-03T04:16:47;101287.63;;;6.84;87.67
32298;BME280;18782;48.984;8.548;2023-02-03T04:19:16;101283.50;;;6.86;87.70
32298;BME280;18782;48.984;8.548;2023-02-03T04:21:43;101274.75;;;6.82;87.82
32298;BME280;18782;48.984;8.548;2023-02-03T04:24:11;101273.00;;;6.81;87.94
32298;BME280;18782;48.984;8.548;2023-02-03T04:26:39;101277.22;;;6.80;88.01
32298;BME280;18782;48.984;8.548;2023-02-03T04:29:07;101270.34;;;6.79;88.54
32298;BME280;18782;48.984;8.548;2023-02-03T04:31:35;101272.03;;;6.79;89.14
32298;BME280;18782;48.984;8.548;2023-02-03T04:34:04;101263.00;;;6.71;89.52
32298;BME280;18782;48.984;8.548;2023-02-03T04:36:33;101267.91;;;6.68;89.87
32298;BME280;18782;48.984;8.548;2023-02-03T04:39:00;101270.06;;;6.75;90.06
32298;BME280;18782;48.984;8.548;2023-02-03T04:41:28;101278.94;;;6.67;90.09
32298;BME280;18782;48.984;8.548;2023-02-03T04:43:55;101266.34;;;6.70;90.02
32298;BME280;18782;48.984;8.548;2023-02-03T04:46:23;101278.72;;;6.77;89.55
32298;BME280;18782;48.984;8.548;2023-02-03T04:48:51;101276.00;;;6.74;89.84
32298;BME280;18782;48.984;8.548;2023-02-03T04:51:18;101284.19;;;6.83;89.41
32298;BME280;18782;48.984;8.548;2023-02-03T04:53:47;101290.91;;;6.81;89.22
32298;BME280;18782;48.984;8.548;2023-02-03T04:56:15;101265.03;;;6.76;88.94
32298;BME280;18782;48.984;8.548;2023-02-03T04:58:42;101283.91;;;6.78;88.60
32298;BME280;18782;48.984;8.548;2023-02-03T05:01:10;101281.63;;;6.83;88.86
32298;BME280;18782;48.984;8.548;2023-02-03T05:03:38;101280.75;;;6.83;88.45
32298;BME280;18782;48.984;8.548;2023-02-03T05:06:05;101278.47;;;6.87;88.45
32298;BME280;18782;48.984;8.548;2023-02-03T05:08:33;101281.25;;;6.90;88.11
32298;BME280;18782;48.984;8.548;2023-02-03T05:11:02;101293.84;;;6.87;88.57
32298;BME280;18782;48.984;8.548;2023-02-03T05:13:32;101279.06;;;6.83;88.54
32298;BME280;18782;48.984;8.548;2023-02-03T05:15:59;101272.69;;;6.90;88.19
32298;BME280;18782;48.984;8.548;2023-02-03T05:18:27;101280.06;;;6.85;87.85
32298;BME280;18782;48.984;8.548;2023-02-03T05:20:54;101269.84;;;6.85;87.52
32298;BME280;18782;48.984;8.548;2023-02-03T05:23:22;101267.44;;;6.88;87.76
32298;BME280;18782;48.984;8.548;2023-02-03T05:25:49;101275.31;;;6.91;87.27
32298;BME280;18782;48.984;8.548;2023-02-03T05:28:18;101298.63;;;6.96;86.67
32298;BME280;18782;48.984;8.548;2023-02-03T05:30:46;101261.72;;;6.92;86.83
32298;BME280;18782;48.984;8.548;2023-02-03T05:33:14;101268.25;;;6.87;86.60
32298;BME280;18782;48.984;8.548;2023-02-03T05:35:41;101260.25;;;6.96;86.55
32298;BME280;18782;48.984;8.548;2023-02-03T05:38:09;101261.56;;;6.89;86.85
32298;BME280;18782;48.984;8.548;2023-02-03T05:40:37;101265.00;;;6.90;86.42
32298;BME280;18782;48.984;8.548;2023-02-03T05:43:36;101271.00;;;6.90;86.56
32298;BME280;18782;48.984;8.548;2023-02-03T05:46:06;101282.72;;;6.87;86.59
32298;BME280;18782;48.984;8.548;2023-02-03T05:48:34;101280.38;;;6.76;87.98
32298;BME280;18782;48.984;8.548;2023-02-03T05:51:01;101257.03;;;6.85;87.24
32298;BME280;18782;48.984;8.548;2023-02-03T05:53:29;101253.03;;;6.75;87.93
32298;BME280;18782;48.984;8.548;2023-02-03T05:55:56;101248.00;;;6.77;88.26
32298;BME280;18782;48.984;8.548;2023-02-03T05:58:24;101252.31;;;6.78;88.64
32298;BME280;18782;48.984;8.548;2023-02-03T06:00:53;101273.34;;;6.87;88.43
32298;BME280;18782;48.984;8.548;2023-02-03T06:03:21;101273.72;;;6.93;87.97
32298;BME280;18782;48.984;8.548;2023-02-03T06:05:48;101266.31;;;6.98;87.55
32298;BME280;18782;48.984;8.548;2023-02-03T06:08:16;101260.31;;;6.97;88.35
32298;BME280;18782;48.984;8.548;2023-02-03T06:10:43;101262.97;;;6.99;87.10
32298;BME280;18782;48.984;8.548;2023-02-03T06:13:13;101262.28;;;7.01;87.53
32298;BME280;18782;48.984;8.548;2023-02-03T06:15:41;101255.75;;;7.06;87.59
32298;BME280;18782;48.984;8.548;2023-02-03T06:18:10;101243.38;;;6.99;87.11
32298;BME280;18782;48.984;8.548;2023-02-03T06:20:37;101229.97;;;7.03;87.24
32298;BME280;18782;48.984;8.548;2023-02-03T06:23:05;101242.50;;;7.14;86.76
32298;BME280;18782;48.984;8.548;2023-02-03T06:25:33;101244.09;;;7.12;86.10
32298;BME280;18782;48.984;8.548;2023-02-03T06:28:01;101242.88;;;7.20;85.80
32298;BME280;18782;48.984;8.548;2023-02-03T06:30:29;101236.84;;;7.04;86.35
32298;BME280;18782;48.984;8.548;2023-02-03T06:32:57;101235.19;;;7.05;86.58
32298;BME280;18782;48.984;8.548;2023-02-03T06:35:26;101245.06;;;7.14;86.09
32298;BME280;18782;48.984;8.548;2023-02-03T06:37:53;101229.44;;;7.09;87.22
32298;BME280;18782;48.984;8.548;2023-02-03T06:40:21;101261.41;;;7.01;88.43
32298;BME280;18782;48.984;8.548;2023-02-03T06:42:49;101243.38;;;6.85;89.91
32298;BME280;18782;48.984;8.548;2023-02-03T06:45:17;101227.72;;;6.80;90.37
32298;BME280;18782;48.984;8.548;2023-02-03T06:47:45;101229.03;;;6.73;91.00
32298;BME280;18782;48.984;8.548;2023-02-03T06:50:13;101227.59;;;6.64;90.27
32298;BME280;18782;48.984;8.548;2023-02-03T06:52:42;101220.88;;;6.66;90.78
32298;BME280;18782;48.984;8.548;2023-02-03T06:55:10;101246.84;;;6.72;90.27
32298;BME280;18782;48.984;8.548;2023-02-03T06:57:42;101237.97;;;6.80;89.26
32298;BME280;18782;48.984;8.548;2023-02-03T07:00:11;101224.44;;;6.83;88.46
32298;BME280;18782;48.984;8.548;2023-02-03T07:02:43;101223.75;;;6.85;88.83
32298;BME280;18782;48.984;8.548;2023-02-03T07:05:11;101240.03;;;7.00;88.78
32298;BME280;18782;48.984;8.548;2023-02-03T07:07:39;101221.47;;;7.04;88.54
32298;BME280;18782;48.984;8.548;2023-02-03T07:10:09;101218.50;;;7.12;87.96
32298;BME280;18782;48.984;8.548;2023-02-03T07:12:36;101217.34;;;7.06;88.00
32298;BME280;18782;48.984;8.548;2023-02-03T07:15:04;101204.34;;;7.03;87.53
32298;BME280;18782;48.984;8.548;2023-02-03T07:17:32;101219.19;;;6.94;88.53
32298;BME280;18782;48.984;8.548;2023-02-03T07:20:00;101214.09;;;6.94;88.69
32298;BME280;18782;48.984;8.548;2023-02-03T07:22:27;101205.16;;;7.02;87.68
32298;BME280;18782;48.984;8.548;2023-02-03T07:24:55;101211.25;;;7.04;87.76
32298;BME280;18782;48.984;8.548;2023-02-03T07:27:24;101193.75;;;6.97;88.12
32298;BME280;18782;48.984;8.548;2023-02-03T07:29:53;101237.63;;;7.03;87.99
32298;BME280;18782;48.984;8.548;2023-02-03T07:32:20;101245.50;;;7.06;87.60
32298;BME280;18782;48.984;8.548;2023-02-03T07:34:48;101238.25;;;6.99;87.77
32298;BME280;18782;48.984;8.548;2023-02-03T07:37:16;101245.50;;;7.06;87.58
32298;BME280;18782;48.984;8.548;2023-02-03T07:39:43;101255.75;;;7.06;87.41
32298;BME280;18782;48.984;8.548;2023-02-03T07:42:11;101264.84;;;7.01;87.65
32298;BME280;18782;48.984;8.548;2023-02-03T07:44:44;101262.44;;;7.04;88.05
32298;BME280;18782;48.984;8.548;2023-02-03T07:47:12;101277.03;;;7.05;88.42
32298;BME280;18782;48.984;8.548;2023-02-03T07:49:39;101287.88;;;7.01;88.60
32298;BME280;18782;48.984;8.548;2023-02-03T07:52:08;101288.03;;;7.04;88.51
32298;BME280;18782;48.984;8.548;2023-02-03T07:57:18;101312.25;;;7.10;87.96
32298;BME280;18782;48.984;8.548;2023-02-03T07:59:47;101285.25;;;7.15;87.27
32298;BME280;18782;48.984;8.548;2023-02-03T08:02:15;101282.59;;;7.13;86.98
32298;BME280;18782;48.984;8.548;2023-02-03T08:04:42;101295.88;;;7.21;86.46
32298;BME280;18782;48.984;8.548;2023-02-03T08:07:10;101310.59;;;7.25;86.37
32298;BME280;18782;48.984;8.548;2023-02-03T08:09:38;101299.19;;;7.20;87.29
32298;BME280;18782;48.984;8.548;2023-02-03T08:12:05;101285.16;;;7.13;87.46
32298;BME280;18782;48.984;8.548;2023-02-03T08:14:33;101285.06;;;7.12;87.99
32298;BME280;18782;48.984;8.548;2023-02-03T08:17:02;101299.44;;;7.10;87.84
32298;BME280;18782;48.984;8.548;2023-02-03T08:19:30;101318.28;;;7.10;88.48
32298;BME280;18782;48.984;8.548;2023-02-03T08:21:57;101304.75;;;7.13;87.94
32298;BME280;18782;48.984;8.548;2023-02-03T08:24:25;101312.25;;;7.10;87.55
32298;BME280;18782;48.984;8.548;2023-02-03T08:26:53;101317.56;;;7.13;88.44
32298;BME280;18782;48.984;8.548;2023-02-03T08:29:20;101314.41;;;7.17;87.84
32298;BME280;18782;48.984;8.548;2023-02-03T08:31:48;101319.69;;;7.20;87.95
32298;BME280;18782;48.984;8.548;2023-02-03T08:34:17;101325.06;;;7.10;87.20
32298;BME280;18782;48.984;8.548;2023-02-03T08:36:45;101316.31;;;7.06;87.25
32298;BME280;18782;48.984;8.548;2023-02-03T08:39:12;101320.03;;;7.11;87.52
32298;BME280;18782;48.984;8.548;2023-02-03T08:41:40;101316.69;;;7.12;87.41
32298;BME280;18782;48.984;8.548;2023-02-03T08:44:07;101323.88;;;7.04;87.71
32298;BME280;18782;48.984;8.548;2023-02-03T08:46:35;101315.25;;;7.02;88.18
32298;BME280;18782;48.984;8.548;2023-02-03T08:49:08;101320.72;;;7.09;88.26
32298;BME280;18782;48.984;8.548;2023-02-03T08:51:37;101302.19;;;7.13;88.30
32298;BME280;18782;48.984;8.548;2023-02-03T08:54:06;101290.56;;;7.18;88.98
32298;BME280;18782;48.984;8.548;2023-02-03T08:56:33;101304.53;;;7.23;88.17
32298;BME280;18782;48.984;8.548;2023-02-03T08:59:01;101311.41;;;7.24;87.55
32298;BME280;18782;48.984;8.548;2023-02-03T09:01:29;101306.97;;;7.06;88.42
32298;BME280;18782;48.984;8.548;2023-02-03T09:03:57;101313.47;;;7.01;89.14
32298;BME280;18782;48.984;8.548;2023-02-03T09:06:27;101294.75;;;7.02;89.48
32298;BME280;18782;48.984;8.548;2023-02-03T09:08:57;101297.09;;;7.13;89.74
32298;BME280;18782;48.984;8.548;2023-02-03T09:11:25;101304.16;;;7.17;89.72
32298;BME280;18782;48.984;8.548;2023-02-03T09:13:52;101293.03;;;7.16;90.16
32298;BME280;18782;48.984;8.548;2023-02-03T09:16:23;101297.81;;;7.25;89.55
32298;BME280;18782;48.984;8.548;2023-02-03T09:18:51;101304.88;;;7.29;88.91
32298;BME280;18782;48.984;8.548;2023-02-03T09:21:18;101302.88;;;7.38;88.38
32298;BME280;18782;48.984;8.548;2023-02-03T09:24:04;101312.56;;;7.29;88.06
32298;BME280;18782;48.984;8.548;2023-02-03T09:26:32;101308.69;;;7.36;88.28
32298;BME280;18782;48.984;8.548;2023-02-03T09:29:00;101306.63;;;7.30;88.79
32298;BME280;18782;48.984;8.548;2023-02-03T09:31:28;101305.06;;;7.32;88.47
32298;BME280;18782;48.984;8.548;2023-02-03T09:33:55;101308.78;;;7.37;87.48
32298;BME280;18782;48.984;8.548;2023-02-03T09:36:24;101299.75;;;7.29;88.39
32298;BME280;18782;48.984;8.548;2023-02-03T09:38:52;101304.72;;;7.26;89.15
32298;BME280;18782;48.984;8.548;2023-02-03T09:41:32;101309.28;;;7.17;90.20
32298;BME280;18782;48.984;8.548;2023-02-03T09:44:06;101288.34;;;7.24;90.52
32298;BME280;18782;48.984;8.548;2023-02-03T09:46:39;101299.59;;;7.26;91.40
32298;BME280;18782;48.984;8.548;2023-02-03T09:49:13;101285.44;;;7.18;91.57
32298;BME280;18782;48.984;8.548;2023-02-03T09:51:46;101305.94;;;7.18;92.23
32298;BME280;18782;48.984;8.548;2023-02-03T09:54:18;101298.00;;;7.28;92.16
32298;BME280;18782;48.984;8.548;2023-02-03T09:56:50;101301.53;;;7.30;91.48
32298;BME280;18782;48.984;8.548;2023-02-03T09:59:21;101275.56;;;7.24;92.33
32298;BME280;18782;48.984;8.548;2023-02-03T10:01:54;101266.03;;;7.36;91.90
32298;BME280;18782;48.984;8.548;2023-02-03T10:04:29;101255.06;;;7.39;91.16
32298;BME280;18782;48.984;8.548;2023-02-03T10:07:06;101272.03;;;7.51;90.59
32298;BME280;18782;48.984;8.548;2023-02-03T10:09:45;101281.06;;;7.59;89.32
32298;BME280;18782;48.984;8.548;2023-02-03T10:12:39;101289.88;;;7.65;89.63
32298;BME280;18782;48.984;8.548;2023-02-03T10:15:26;101289.69;;;7.62;89.88
32298;BME280;18782;48.984;8.548;2023-02-03T10:18:03;101288.66;;;7.73;88.53
32298;BME280;18782;48.984;8.548;2023-02-03T10:20:36;101287.75;;;7.72;88.38
32298;BME280;18782;48.984;8.548;2023-02-03T10:23:08;101296.56;;;7.92;87.93
32298;BME280;18782;48.984;8.548;2023-02-03T10:25:40;101314.09;;;7.70;87.36
32298;BME280;18782;48.984;8.548;2023-02-03T10:28:15;101307.63;;;7.62;87.65
32298;BME280;18782;48.984;8.548;2023-02-03T10:30:47;101303.50;;;7.64;88.20
32298;BME280;18782;48.984;8.548;2023-02-03T10:33:17;101299.19;;;7.63;88.46
32298;BME280;18782;48.984;8.548;2023-02-03T10:35:49;101295.53;;;7.59;88.41
32298;BME280;18782;48.984;8.548;2023-02-03T10:38:39;101280.44;;;7.64;88.32
32298;BME280;18782;48.984;8.548;2023-02-03T10:41:09;101290.34;;;7.57;87.79
32298;BME280;18782;48.984;8.548;2023-02-03T10:43:38;101263.09;;;7.74;88.09
32298;BME280;18782;48.984;8.548;2023-02-03T10:46:19;101248.00;;;7.79;87.06
32298;BME280;18782;48.984;8.548;2023-02-03T10:48:47;101268.31;;;7.76;87.00
32298;BME280;18782;48.984;8.548;2023-02-03T10:51:21;101292.72;;;7.84;86.38
32298;BME280;18782;48.984;8.548;2023-02-03T10:53:50;101272.47;;;7.74;87.30
32298;BME280;18782;48.984;8.548;2023-02-03T10:56:21;101271.66;;;7.90;86.01
32298;BME280;18782;48.984;8.548;2023-02-03T10:58:52;101262.28;;;7.90;85.73
32298;BME280;18782;48.984;8.548;2023-02-03T11:01:22;101247.97;;;7.94;85.81
32298;BME280;18782;48.984;8.548;2023-02-03T11:03:57;101248.75;;;7.93;85.38
32298;BME280;18782;48.984;8.548;2023-02-03T11:06:26;101244.22;;;8.03;84.89
32298;BME280;18782;48.984;8.548;2023-02-03T11:08:54;101248.28;;;8.15;84.30
32298;BME280;18782;48.984;8.548;2023-02-03T11:11:23;101249.53;;;8.06;84.75
32298;BME280;18782;48.984;8.548;2023-02-03T11:13:54;101246.16;;;8.07;84.83
32298;BME280;18782;48.984;8.548;2023-02-03T11:16:22;101244.72;;;8.13;84.21
32298;BME280;18782;48.984;8.548;2023-02-03T11:18:55;101247.22;;;8.11;84.95
32298;BME280;18782;48.984;8.548;2023-02-03T11:21:26;101236.44;;;8.02;84.50
32298;BME280;18782;48.984;8.548;2023-02-03T11:24:00;101229.66;;;8.19;84.78
32298;BME280;18782;48.984;8.548;2023-02-03T11:26:33;101219.09;;;8.29;84.51
32298;BME280;18782;48.984;8.548;2023-02-03T11:29:05;101219.63;;;8.38;84.20
32298;BME280;18782;48.984;8.548;2023-02-03T11:31:35;101218.16;;;8.27;85.10
32298;BME280;18782;48.984;8.548;2023-02-03T11:34:05;101231.28;;;8.17;85.15
32298;BME280;18782;48.984;8.548;2023-02-03T11:36:34;101241.34;;;8.14;85.25
32298;BME280;18782;48.984;8.548;2023-02-03T11:39:25;101218.25;;;7.82;87.11
32298;BME280;18782;48.984;8.548;2023-02-03T11:41:53;101197.31;;;7.90;86.77
32298;BME280;18782;48.984;8.548;2023-02-03T11:44:24;101212.44;;;7.85;87.27
32298;BME280;18782;48.984;8.548;2023-02-03T11:46:56;101199.63;;;7.85;86.86
32298;BME280;18782;48.984;8.548;2023-02-03T11:49:45;101167.47;;;8.06;86.40
32298;BME280;18782;48.984;8.548;2023-02-03T11:52:32;101171.47;;;8.18;84.42
32298;BME280;18782;48.984;8.548;2023-02-03T11:55:10;101213.56;;;8.21;84.02
32298;BME280;18782;48.984;8.548;2023-02-03T11:57:46;101202.88;;;8.45;83.30
32298;BME280;18782;48.984;8.548;2023-02-03T12:00:23;101192.84;;;8.49;82.33
32298;BME280;18782;48.984;8.548;2023-02-03T12:03:17;101210.31;;;8.40;83.05
32298;BME280;18782;48.984;8.548;2023-02-03T12:05:58;101186.06;;;8.35;82.72
32298;BME280;18782;48.984;8.548;2023-02-03T12:08:41;101183.91;;;8.41;83.22
32298;BME280;18782;48.984;8.548;2023-02-03T12:11:20;101198.81;;;8.48;82.57
32298;BME280;18782;48.984;8.548;2023-02-03T12:14:00;101202.00;;;8.44;83.04
32298;BME280;18782;48.984;8.548;2023-02-03T12:16:54;101209.91;;;8.32;83.29
32298;BME280;18782;48.984;8.548;2023-02-03T12:19:29;101226.47;;;8.38;83.04
32298;BME280;18782;48.984;8.548;2023-02-03T12:22:09;101190.06;;;8.30;83.32
32298;BME280;18782;48.984;8.548;2023-02-03T12:24:48;101206.25;;;8.44;83.51
32298;BME280;18782;48.984;8.548;2023-02-03T12:27:28;101212.69;;;8.21;83.69
32298;BME280;18782;48.984;8.548;2023-02-03T12:30:03;101212.47;;;8.32;83.23
32298;BME280;18782;48.984;8.548;2023-02-03T12:32:38;101221.53;;;8.26;83.18
32298;BME280;18782;48.984;8.548;2023-02-03T12:35:12;101213.41;;;8.18;83.73
32298;BME280;18782;48.984;8.548;2023-02-03T12:37:48;101225.84;;;8.27;83.23
32298;BME280;18782;48.984;8.548;2023-02-03T12:40:21;101233.38;;;8.24;83.76
32298;BME280;18782;48.984;8.548;2023-02-03T12:42:56;101228.75;;;8.33;83.38
32298;BME280;18782;48.984;8.548;2023-02-03T12:45:28;101216.75;;;8.17;83.64
32298;BME280;18782;48.984;8.548;2023-02-03T12:48:01;101206.59;;;8.19;83.76
32298;BME280;18782;48.984;8.548;2023-02-03T12:50:35;101183.69;;;8.22;84.11
32298;BME280;18782;48.984;8.548;2023-02-03T12:53:13;101180.47;;;8.26;83.46
32298;BME280;18782;48.984;8.548;2023-02-03T12:55:46;101154.97;;;8.29;83.26
32298;BME280;18782;48.984;8.548;2023-02-03T12:58:21;101143.63;;;8.40;83.24
32298;BME280;18782;48.984;8.548;2023-02-03T13:00:56;101136.16;;;8.45;82.23
32298;BME280;18782;48.984;8.548;2023-02-03T13:03:31;101143.63;;;8.56;81.69
32298;BME280;18782;48.984;8.548;2023-02-03T13:06:06;101125.34;;;8.67;81.30
32298;BME280;18782;48.984;8.548;2023-02-03T13:08:39;101122.19;;;8.72;80.86
32298;BME280;18782;48.984;8.548;2023-02-03T13:11:18;101111.34;;;8.78;80.95
32298;BME280;18782;48.984;8.548;2023-02-03T13:13:51;101123.72;;;8.69;81.41
32298;BME280;18782;48.984;8.548;2023-02-03T13:16:25;101127.63;;;8.78;80.16
32298;BME280;18782;48.984;8.548;2023-02-03T13:18:57;101143.09;;;8.80;80.61
32298;BME280;18782;48.984;8.548;2023-02-03T13:21:27;101124.44;;;8.82;80.07
32298;BME280;18782;48.984;8.548;2023-02-03T13:23:55;101126.88;;;8.81;79.89